Time;durP1;ratioP1;P1;durP2;ratioP2;P2;SDS_P1;SDS_P2;PMS_P1;PMS_P2;Temp;Humidity;BMP_temperature;BMP_pressure;BME280_temperature;BME280_humidity;BME280_pressure;Samples;Min_cycle;Max_cycle;Signal;HPM_P1;HPM_P2
2023/05/26 00:00:54;;;;;;;0.40;0.40;;;;;;;;;;5084588;28;20202;-83
2023/05/26 00:03:20;;;;;;;0.50;0.50;;;;;;;;;;5081623;28;20167;-83
2023/05/26 00:05:46;;;;;;;0.40;0.40;;;;;;;;;;5080335;28;20179;-83
2023/05/26 00:08:12;;;;;;;0.40;0.40;;;;;;;;;;5080497;28;20178;-83
2023/05/26 00:10:38;;;;;;;0.40;0.40;;;;;;;;;;5079838;28;20205;-83
2023/05/26 00:13:04;;;;;;;0.43;0.43;;;;;;;;;;5080233;28;20208;-83
2023/05/26 00:15:30;;;;;;;0.50;0.50;;;;;;;;;;5080490;28;20205;-83
2023/05/26 00:18:01;;;;;;;0.40;0.40;;;;;;;;;;5079796;28;20194;-83
2023/05/26 00:20:27;;;;;;;0.50;0.50;;;;;;;;;;5080106;28;20209;-83
2023/05/26 00:22:53;;;;;;;0.40;0.40;;;;;;;;;;5080799;28;20178;-83
2023/05/26 00:25:20;;;;;;;0.50;0.50;;;;;;;;;;5081869;28;20186;-83
2023/05/26 00:27:46;;;;;;;0.40;0.40;;;;;;;;;;5081309;28;20224;-83
2023/05/26 00:30:12;;;;;;;0.43;0.43;;;;;;;;;;5081301;28;20734;-83
2023/05/26 00:32:38;;;;;;;0.50;0.50;;;;;;;;;;5080469;28;20221;-84
2023/05/26 00:35:04;;;;;;;0.57;0.57;;;;;;;;;;5081872;28;20651;-83
2023/05/26 00:37:30;;;;;;;0.40;0.40;;;;;;;;;;5082868;28;20171;-82
2023/05/26 00:39:56;;;;;;;0.40;0.40;;;;;;;;;;5090686;28;20191;-81
2023/05/26 00:42:22;;;;;;;0.40;0.40;;;;;;;;;;5096869;28;20174;-83
2023/05/26 00:44:50;;;;;;;0.50;0.50;;;;;;;;;;5096154;28;20197;-83
2023/05/26 00:47:16;;;;;;;0.50;0.50;;;;;;;;;;5084970;28;20171;-83
2023/05/26 00:49:42;;;;;;;0.50;0.50;;;;;;;;;;5080217;28;20309;-83
2023/05/26 00:52:09;;;;;;;0.47;0.47;;;;;;;;;;5080579;28;20202;-83
2023/05/26 00:54:35;;;;;;;0.40;0.40;;;;;;;;;;5080365;28;20595;-83
2023/05/26 00:57:02;;;;;;;0.40;0.40;;;;;;;;;;5080972;28;20181;-82
2023/05/26 00:59:28;;;;;;;0.40;0.40;;;;;;;;;;5080183;28;20222;-82
2023/05/26 01:01:55;;;;;;;0.40;0.40;;;;;;;;;;5081515;28;20178;-83
2023/05/26 01:04:21;;;;;;;0.40;0.40;;;;;;;;;;5091380;28;20151;-82
2023/05/26 01:06:49;;;;;;;0.43;0.43;;;;;;;;;;5096819;28;20178;-83
2023/05/26 01:09:15;;;;;;;0.50;0.50;;;;;;;;;;5096001;28;20195;-84
2023/05/26 01:11:44;;;;;;;0.40;0.40;;;;;;;;;;5096817;28;20202;-83
2023/05/26 01:14:12;;;;;;;0.40;0.40;;;;;;;;;;5081455;28;20189;-83
2023/05/26 01:16:42;;;;;;;0.40;0.40;;;;;;;;;;5077827;28;20178;-82
2023/05/26 01:19:16;;;;;;;0.40;0.40;;;;;;;;;;5077184;28;20175;-81
2023/05/26 01:21:43;;;;;;;0.50;0.50;;;;;;;;;;5077034;28;20173;-83
2023/05/26 01:24:18;;;;;;;0.50;0.50;;;;;;;;;;5077016;28;20261;-82
2023/05/26 01:26:59;;;;;;;0.40;0.40;;;;;;;;;;5096534;28;20177;-83
2023/05/26 01:29:29;;;;;;;0.47;0.47;;;;;;;;;;5096842;28;20208;-82
2023/05/26 01:32:05;;;;;;;0.50;0.50;;;;;;;;;;5096467;28;20217;-83
2023/05/26 01:34:31;;;;;;;0.50;0.50;;;;;;;;;;5112665;22;20289;-85
2023/05/26 01:36:56;;;;;;;0.40;0.40;;;;;;;;;;5098363;28;20178;-86
2023/05/26 01:39:22;;;;;;;0.50;0.50;;;;;;;;;;5097482;28;20222;-85
2023/05/26 01:41:54;;;;;;;0.50;0.50;;;;;;;;;;5098071;28;20196;-86
2023/05/26 01:44:24;;;;;;;0.50;0.50;;;;;;;;;;5098442;28;20288;-85
2023/05/26 01:46:51;;;;;;;0.50;0.50;;;;;;;;;;5080081;28;20183;-86
2023/05/26 01:49:20;;;;;;;0.40;0.40;;;;;;;;;;5074649;28;20235;-84
2023/05/26 01:51:51;;;;;;;0.50;0.50;;;;;;;;;;5076367;28;20203;-84
2023/05/26 01:54:18;;;;;;;0.40;0.40;;;;;;;;;;5075918;28;20185;-85
2023/05/26 01:56:47;;;;;;;0.40;0.40;;;;;;;;;;5076430;28;20261;-85
2023/05/26 01:59:16;;;;;;;0.50;0.50;;;;;;;;;;5077781;28;20178;-85
2023/05/26 02:01:42;;;;;;;0.30;0.30;;;;;;;;;;5079499;28;20213;-85
2023/05/26 02:04:11;;;;;;;0.40;0.40;;;;;;;;;;5081579;28;20171;-85
2023/05/26 02:06:37;;;;;;;0.40;0.40;;;;;;;;;;5094697;28;20184;-84
2023/05/26 02:09:04;;;;;;;0.60;0.60;;;;;;;;;;5092145;28;20175;-86
2023/05/26 02:11:30;;;;;;;0.40;0.40;;;;;;;;;;5079044;28;20214;-85
2023/05/26 02:13:56;;;;;;;0.50;0.50;;;;;;;;;;5079386;28;20633;-85
2023/05/26 02:16:22;;;;;;;0.50;0.50;;;;;;;;;;5079903;28;20178;-86
2023/05/26 02:18:49;;;;;;;0.50;0.50;;;;;;;;;;5078455;28;20174;-86
2023/05/26 02:21:15;;;;;;;0.40;0.40;;;;;;;;;;5077932;28;20633;-85
2023/05/26 02:23:42;;;;;;;0.53;0.53;;;;;;;;;;5078566;28;20183;-86
2023/05/26 02:26:08;;;;;;;0.43;0.43;;;;;;;;;;5078659;28;20162;-86
2023/05/26 02:28:34;;;;;;;0.33;0.33;;;;;;;;;;5079129;28;20178;-85
2023/05/26 02:31:00;;;;;;;0.40;0.40;;;;;;;;;;5078940;28;20206;-86
2023/05/26 02:33:26;;;;;;;0.40;0.40;;;;;;;;;;5079244;28;20208;-86
2023/05/26 02:35:52;;;;;;;0.40;0.40;;;;;;;;;;5080180;28;20174;-86
2023/05/26 02:38:18;;;;;;;0.50;0.50;;;;;;;;;;5080106;28;20552;-86
2023/05/26 02:40:44;;;;;;;0.57;0.57;;;;;;;;;;5079193;28;20198;-86
2023/05/26 02:43:10;;;;;;;0.50;0.50;;;;;;;;;;5081711;28;20244;-86
2023/05/26 02:45:36;;;;;;;0.50;0.50;;;;;;;;;;5081706;28;20552;-86
2023/05/26 02:48:02;;;;;;;0.40;0.40;;;;;;;;;;5081176;28;20178;-84
2023/05/26 02:50:28;;;;;;;0.40;0.40;;;;;;;;;;5087693;28;20549;-85
2023/05/26 02:52:54;;;;;;;0.40;0.40;;;;;;;;;;5090086;28;20214;-86
2023/05/26 02:55:21;;;;;;;0.50;0.50;;;;;;;;;;5091037;28;20173;-85
2023/05/26 02:57:47;;;;;;;0.30;0.30;;;;;;;;;;5097215;28;20175;-85
2023/05/26 03:00:13;;;;;;;0.40;0.40;;;;;;;;;;5096686;28;20191;-84
2023/05/26 03:02:40;;;;;;;0.40;0.40;;;;;;;;;;5080946;28;20197;-84
2023/05/26 03:05:06;;;;;;;0.40;0.40;;;;;;;;;;5072819;28;20581;-85
2023/05/26 03:07:32;;;;;;;0.50;0.50;;;;;;;;;;5073141;28;20174;-84
2023/05/26 03:09:58;;;;;;;0.40;0.40;;;;;;;;;;5073758;28;20209;-85
2023/05/26 03:12:24;;;;;;;0.50;0.50;;;;;;;;;;5073756;28;20216;-84
2023/05/26 03:14:50;;;;;;;0.60;0.60;;;;;;;;;;5073267;28;20201;-85
2023/05/26 03:17:16;;;;;;;0.50;0.50;;;;;;;;;;5073544;28;20251;-84
2023/05/26 03:19:42;;;;;;;0.40;0.40;;;;;;;;;;5073188;28;20198;-85
2023/05/26 03:22:08;;;;;;;0.40;0.40;;;;;;;;;;5073136;28;20182;-86
2023/05/26 03:24:35;;;;;;;0.60;0.60;;;;;;;;;;5073503;28;20228;-85
2023/05/26 03:27:01;;;;;;;0.60;0.60;;;;;;;;;;5073233;28;20606;-84
2023/05/26 03:29:29;;;;;;;0.60;0.60;;;;;;;;;;5072394;28;20289;-85
2023/05/26 03:31:55;;;;;;;0.47;0.47;;;;;;;;;;5073129;28;20293;-84
2023/05/26 03:34:23;;;;;;;0.40;0.40;;;;;;;;;;5073213;28;20880;-85
2023/05/26 03:36:49;;;;;;;0.50;0.50;;;;;;;;;;5074660;28;20668;-86
2023/05/26 03:39:16;;;;;;;0.60;0.60;;;;;;;;;;5078874;28;20174;-86
2023/05/26 03:41:42;;;;;;;0.57;0.57;;;;;;;;;;5079362;28;20652;-86
2023/05/26 03:44:08;;;;;;;0.50;0.50;;;;;;;;;;5079445;28;20182;-86
2023/05/26 03:46:34;;;;;;;0.40;0.40;;;;;;;;;;5079339;28;20182;-86
2023/05/26 03:49:00;;;;;;;0.47;0.47;;;;;;;;;;5079786;28;20174;-86
2023/05/26 03:51:26;;;;;;;0.43;0.43;;;;;;;;;;5079726;28;20206;-86
2023/05/26 03:53:52;;;;;;;0.60;0.60;;;;;;;;;;5081505;28;20231;-85
2023/05/26 03:56:18;;;;;;;0.63;0.63;;;;;;;;;;5079228;28;20179;-86
2023/05/26 03:58:45;;;;;;;0.40;0.40;;;;;;;;;;5079749;28;20237;-86
2023/05/26 04:01:11;;;;;;;0.50;0.50;;;;;;;;;;5079249;28;20200;-86
2023/05/26 04:03:37;;;;;;;0.60;0.60;;;;;;;;;;5079962;28;20188;-85
2023/05/26 04:06:03;;;;;;;0.60;0.60;;;;;;;;;;5080738;28;20206;-86
2023/05/26 04:08:30;;;;;;;0.50;0.50;;;;;;;;;;5084442;28;20178;-85
2023/05/26 04:10:56;;;;;;;0.53;0.53;;;;;;;;;;5084483;28;20289;-84
2023/05/26 04:13:22;;;;;;;0.50;0.50;;;;;;;;;;5084884;28;20840;-86
2023/05/26 04:15:48;;;;;;;0.50;0.50;;;;;;;;;;5085314;28;20177;-86
2023/05/26 04:18:14;;;;;;;0.60;0.60;;;;;;;;;;5085634;28;20181;-85
2023/05/26 04:20:40;;;;;;;0.50;0.50;;;;;;;;;;5096766;28;20217;-84
2023/05/26 04:23:06;;;;;;;0.40;0.40;;;;;;;;;;5099306;28;20189;-85
2023/05/26 04:25:32;;;;;;;0.60;0.60;;;;;;;;;;5099440;28;20186;-84
2023/05/26 04:27:58;;;;;;;0.40;0.40;;;;;;;;;;5099136;28;20234;-84
2023/05/26 04:30:24;;;;;;;0.50;0.50;;;;;;;;;;5098499;28;20187;-84
2023/05/26 04:32:50;;;;;;;0.43;0.43;;;;;;;;;;5098790;28;20210;-84
2023/05/26 04:35:19;;;;;;;0.50;0.50;;;;;;;;;;5099071;28;20209;-85
2023/05/26 04:37:45;;;;;;;0.50;0.50;;;;;;;;;;5099073;28;20222;-83
2023/05/26 04:40:11;;;;;;;0.47;0.47;;;;;;;;;;5097380;28;20206;-85
2023/05/26 04:42:37;;;;;;;0.40;0.40;;;;;;;;;;5080385;28;20205;-85
2023/05/26 04:45:04;;;;;;;0.30;0.30;;;;;;;;;;5079221;28;20178;-85
2023/05/26 04:47:32;;;;;;;0.40;0.40;;;;;;;;;;5068582;28;20646;-87
2023/05/26 04:49:59;;;;;;;0.40;0.40;;;;;;;;;;5062645;28;20199;-85
2023/05/26 04:52:25;;;;;;;0.50;0.50;;;;;;;;;;5058576;28;20219;-85
2023/05/26 04:54:51;;;;;;;0.50;0.50;;;;;;;;;;5059660;28;20281;-86
2023/05/26 04:57:18;;;;;;;0.40;0.40;;;;;;;;;;5085721;28;20213;-86
2023/05/26 04:59:44;;;;;;;0.40;0.40;;;;;;;;;;5098494;28;20323;-86
2023/05/26 05:02:10;;;;;;;0.40;0.40;;;;;;;;;;5065239;28;20175;-85
2023/05/26 05:04:36;;;;;;;0.43;0.43;;;;;;;;;;5069080;28;20182;-86
2023/05/26 05:07:02;;;;;;;0.40;0.40;;;;;;;;;;5065122;28;20171;-86
2023/05/26 05:09:28;;;;;;;0.40;0.40;;;;;;;;;;5076419;28;20200;-87
2023/05/26 05:11:54;;;;;;;0.40;0.40;;;;;;;;;;5077286;28;20224;-86
2023/05/26 05:14:21;;;;;;;0.30;0.30;;;;;;;;;;5077886;28;20265;-86
2023/05/26 05:16:47;;;;;;;0.40;0.40;;;;;;;;;;5080342;28;20182;-86
2023/05/26 05:19:13;;;;;;;0.40;0.40;;;;;;;;;;5077851;28;20189;-85
2023/05/26 05:21:39;;;;;;;0.40;0.40;;;;;;;;;;5079397;28;20166;-85
2023/05/26 05:24:05;;;;;;;0.40;0.40;;;;;;;;;;5077752;28;20179;-86
2023/05/26 05:26:31;;;;;;;0.40;0.40;;;;;;;;;;5079450;28;20660;-85
2023/05/26 05:28:57;;;;;;;0.40;0.40;;;;;;;;;;5079180;28;20178;-86
2023/05/26 05:31:23;;;;;;;0.30;0.30;;;;;;;;;;5077237;28;20579;-86
2023/05/26 05:33:49;;;;;;;0.50;0.50;;;;;;;;;;5095690;28;20228;-84
2023/05/26 05:36:15;;;;;;;0.40;0.40;;;;;;;;;;5077823;28;20187;-85
2023/05/26 05:38:41;;;;;;;0.30;0.30;;;;;;;;;;5083177;22;20181;-84
2023/05/26 05:41:07;;;;;;;0.40;0.40;;;;;;;;;;5098774;28;20682;-83
2023/05/26 05:43:33;;;;;;;0.30;0.30;;;;;;;;;;5099353;28;20227;-83
2023/05/26 05:45:59;;;;;;;0.40;0.40;;;;;;;;;;5099321;28;20185;-83
2023/05/26 05:48:25;;;;;;;0.40;0.40;;;;;;;;;;5099675;28;20197;-85
2023/05/26 05:50:51;;;;;;;0.30;0.30;;;;;;;;;;5098351;28;20198;-85
2023/05/26 05:53:17;;;;;;;0.40;0.40;;;;;;;;;;5097778;28;20189;-84
2023/05/26 05:55:46;;;;;;;0.40;0.40;;;;;;;;;;5098712;28;20231;-85
2023/05/26 05:58:12;;;;;;;0.40;0.40;;;;;;;;;;5097394;28;20174;-81
2023/05/26 06:00:38;;;;;;;0.40;0.40;;;;;;;;;;5096502;28;20199;-82
2023/05/26 06:03:04;;;;;;;0.40;0.40;;;;;;;;;;5098894;28;20227;-81
2023/05/26 06:05:29;;;;;;;0.40;0.40;;;;;;;;;;5099783;28;20177;-82
2023/05/26 06:07:55;;;;;;;0.30;0.30;;;;;;;;;;5098330;28;20169;-81
2023/05/26 06:10:21;;;;;;;0.40;0.40;;;;;;;;;;5097628;28;20288;-83
2023/05/26 06:12:47;;;;;;;0.37;0.37;;;;;;;;;;5097814;28;20454;-81
2023/05/26 06:15:13;;;;;;;0.50;0.50;;;;;;;;;;5117681;28;20187;-82
2023/05/26 06:17:39;;;;;;;0.40;0.40;;;;;;;;;;5118088;28;20173;-84
2023/05/26 06:20:05;;;;;;;0.33;0.33;;;;;;;;;;5117857;28;20182;-82
2023/05/26 06:22:33;;;;;;;0.40;0.40;;;;;;;;;;5117773;28;20166;-83
2023/05/26 06:24:59;;;;;;;0.40;0.40;;;;;;;;;;5115879;28;20182;-83
2023/05/26 06:27:25;;;;;;;0.47;0.47;;;;;;;;;;5099324;28;20184;-83
2023/05/26 06:29:51;;;;;;;0.40;0.40;;;;;;;;;;5096904;28;20204;-83
2023/05/26 06:32:17;;;;;;;0.40;0.40;;;;;;;;;;5097094;28;20217;-84
2023/05/26 06:34:43;;;;;;;0.40;0.40;;;;;;;;;;5096792;28;20181;-84
2023/05/26 06:37:09;;;;;;;0.30;0.30;;;;;;;;;;5097213;28;20264;-83
2023/05/26 06:39:35;;;;;;;0.37;0.37;;;;;;;;;;5096331;28;20209;-83
2023/05/26 06:42:01;;;;;;;0.33;0.33;;;;;;;;;;5096450;28;20243;-82
2023/05/26 06:44:27;;;;;;;0.40;0.40;;;;;;;;;;5095551;28;20185;-83
2023/05/26 06:46:53;;;;;;;0.30;0.30;;;;;;;;;;5095079;28;20230;-82
2023/05/26 06:49:19;;;;;;;0.40;0.40;;;;;;;;;;5093010;28;20174;-82
2023/05/26 06:51:45;;;;;;;0.40;0.40;;;;;;;;;;5092701;28;20205;-84
2023/05/26 06:54:11;;;;;;;0.40;0.40;;;;;;;;;;5094835;28;20177;-83
2023/05/26 06:56:37;;;;;;;0.47;0.47;;;;;;;;;;5094590;28;20648;-82
2023/05/26 06:59:03;;;;;;;0.40;0.40;;;;;;;;;;5093189;28;20181;-82
2023/05/26 07:01:29;;;;;;;0.40;0.40;;;;;;;;;;5094503;28;20561;-84
2023/05/26 07:03:55;;;;;;;0.40;0.40;;;;;;;;;;5095521;28;20182;-84
2023/05/26 07:06:21;;;;;;;0.30;0.30;;;;;;;;;;5095580;28;20186;-82
2023/05/26 07:08:47;;;;;;;0.30;0.30;;;;;;;;;;5095042;28;20660;-83
2023/05/26 07:11:13;;;;;;;0.40;0.40;;;;;;;;;;5095274;28;20204;-84
2023/05/26 07:13:39;;;;;;;0.30;0.30;;;;;;;;;;5092437;28;20311;-82
2023/05/26 07:16:05;;;;;;;0.40;0.40;;;;;;;;;;5096290;28;20182;-82
2023/05/26 07:18:31;;;;;;;0.20;0.20;;;;;;;;;;5093178;28;20178;-81
2023/05/26 07:20:57;;;;;;;0.37;0.37;;;;;;;;;;5106590;28;20212;-80
2023/05/26 07:23:23;;;;;;;0.30;0.30;;;;;;;;;;5107974;28;20185;-81
2023/05/26 07:25:49;;;;;;;0.30;0.30;;;;;;;;;;5108617;28;20182;-80
2023/05/26 07:28:15;;;;;;;0.30;0.30;;;;;;;;;;5109231;28;20162;-79
2023/05/26 07:30:41;;;;;;;0.30;0.30;;;;;;;;;;5112537;28;20186;-80
2023/05/26 07:33:07;;;;;;;0.30;0.30;;;;;;;;;;5107831;28;20213;-81
2023/05/26 07:35:33;;;;;;;0.40;0.40;;;;;;;;;;5107015;28;20189;-81
2023/05/26 07:37:59;;;;;;;0.30;0.30;;;;;;;;;;5095259;28;20182;-81
2023/05/26 07:40:25;;;;;;;0.37;0.37;;;;;;;;;;5095709;28;20220;-81
2023/05/26 07:42:51;;;;;;;0.37;0.37;;;;;;;;;;5101245;28;20194;-86
2023/05/26 07:45:17;;;;;;;0.30;0.30;;;;;;;;;;5102951;28;20174;-83
2023/05/26 07:47:43;;;;;;;0.43;0.43;;;;;;;;;;5102309;28;20595;-82
2023/05/26 07:50:09;;;;;;;0.30;0.30;;;;;;;;;;5100272;28;20247;-82
2023/05/26 07:52:35;;;;;;;0.33;0.33;;;;;;;;;;5100206;28;20320;-81
2023/05/26 07:55:01;;;;;;;0.33;0.33;;;;;;;;;;5100379;28;20178;-82
2023/05/26 07:57:27;;;;;;;0.30;0.30;;;;;;;;;;5100996;28;20318;-82
2023/05/26 07:59:53;;;;;;;0.43;0.43;;;;;;;;;;5100037;28;20197;-82
2023/05/26 08:02:20;;;;;;;0.37;0.37;;;;;;;;;;5102141;28;20173;-83
2023/05/26 08:04:46;;;;;;;0.20;0.20;;;;;;;;;;5102283;28;20180;-84
2023/05/26 08:07:12;;;;;;;0.40;0.40;;;;;;;;;;5102047;28;20201;-83
2023/05/26 08:09:38;;;;;;;0.40;0.40;;;;;;;;;;5101744;28;20194;-84
2023/05/26 08:12:06;;;;;;;0.40;0.40;;;;;;;;;;5098734;28;20218;-84
2023/05/26 08:14:32;;;;;;;0.40;0.40;;;;;;;;;;5094849;28;20178;-85
2023/05/26 08:16:58;;;;;;;0.40;0.40;;;;;;;;;;5096499;28;20190;-85
2023/05/26 08:19:24;;;;;;;0.50;0.50;;;;;;;;;;5094645;28;20169;-84
2023/05/26 08:21:50;;;;;;;0.30;0.30;;;;;;;;;;5101223;28;20182;-82
2023/05/26 08:24:16;;;;;;;0.40;0.40;;;;;;;;;;5094152;28;20178;-83
2023/05/26 08:26:42;;;;;;;0.40;0.40;;;;;;;;;;5095245;28;20182;-82
2023/05/26 08:29:09;;;;;;;0.40;0.40;;;;;;;;;;5085171;28;20187;-84
2023/05/26 08:31:35;;;;;;;0.50;0.50;;;;;;;;;;5096859;28;20206;-83
2023/05/26 08:34:01;;;;;;;0.30;0.30;;;;;;;;;;5086869;28;20185;-84
2023/05/26 08:36:27;;;;;;;0.50;0.50;;;;;;;;;;5100199;28;20174;-84
2023/05/26 08:38:53;;;;;;;0.40;0.40;;;;;;;;;;5101116;28;20220;-82
2023/05/26 08:41:21;;;;;;;0.50;0.50;;;;;;;;;;5099790;28;20208;-84
2023/05/26 08:43:51;;;;;;;0.40;0.40;;;;;;;;;;5099776;28;20181;-85
2023/05/26 08:46:17;;;;;;;0.30;0.30;;;;;;;;;;5099649;28;20174;-83
2023/05/26 08:48:44;;;;;;;0.40;0.40;;;;;;;;;;5099756;28;20181;-82
2023/05/26 08:51:11;;;;;;;0.30;0.30;;;;;;;;;;5104463;28;20204;-84
2023/05/26 08:53:37;;;;;;;0.50;0.50;;;;;;;;;;5111427;28;20174;-83
2023/05/26 08:56:04;;;;;;;0.50;0.50;;;;;;;;;;5104527;28;20190;-83
2023/05/26 08:58:31;;;;;;;0.40;0.40;;;;;;;;;;5085720;28;20174;-83
2023/05/26 09:00:58;;;;;;;0.50;0.50;;;;;;;;;;5084047;28;20228;-84
2023/05/26 09:03:24;;;;;;;0.40;0.40;;;;;;;;;;5077210;28;20506;-84
2023/05/26 09:05:50;;;;;;;0.40;0.40;;;;;;;;;;5089006;28;20180;-84
2023/05/26 09:08:16;;;;;;;0.47;0.47;;;;;;;;;;5089034;28;20178;-83
2023/05/26 09:10:42;;;;;;;0.33;0.33;;;;;;;;;;5087808;28;20698;-83
2023/05/26 09:13:10;;;;;;;0.50;0.50;;;;;;;;;;5089052;28;20210;-85
2023/05/26 09:15:36;;;;;;;0.30;0.30;;;;;;;;;;5088913;28;20193;-83
2023/05/26 09:18:10;;;;;;;0.40;0.40;;;;;;;;;;5208697;22;20210;-88
2023/05/26 09:20:43;;;;;;;0.40;0.40;;;;;;;;;;5083201;28;20186;-90
2023/05/26 09:23:09;;;;;;;0.40;0.40;;;;;;;;;;5086280;28;20158;-88
2023/05/26 09:25:36;;;;;;;0.30;0.30;;;;;;;;;;5088475;28;20178;-91
2023/05/26 09:28:06;;;;;;;0.50;0.50;;;;;;;;;;5075999;28;20609;-91
2023/05/26 09:30:36;;;;;;;0.40;0.40;;;;;;;;;;5075321;28;20274;-92
2023/05/26 09:33:04;;;;;;;0.40;0.40;;;;;;;;;;5074378;28;20214;-90
2023/05/26 09:35:37;;;;;;;0.40;0.40;;;;;;;;;;5073953;28;20185;-90
2023/05/26 09:38:04;;;;;;;0.40;0.40;;;;;;;;;;5074038;28;20178;-88
2023/05/26 09:40:30;;;;;;;0.40;0.40;;;;;;;;;;5073588;28;20612;-88
2023/05/26 09:42:56;;;;;;;0.50;0.50;;;;;;;;;;5074533;28;20171;-87
2023/05/26 09:45:23;;;;;;;0.50;0.50;;;;;;;;;;5074138;28;20185;-95
2023/05/26 09:47:56;;;;;;;0.30;0.30;;;;;;;;;;5053489;28;20190;-90
2023/05/26 09:50:22;;;;;;;0.30;0.30;;;;;;;;;;5061152;28;20194;-89
2023/05/26 09:52:49;;;;;;;0.40;0.40;;;;;;;;;;5088721;28;20262;-94
2023/05/26 09:55:15;;;;;;;0.40;0.40;;;;;;;;;;5071578;28;20171;-86
2023/05/26 09:57:41;;;;;;;0.40;0.40;;;;;;;;;;5064775;28;20189;-87
2023/05/26 10:00:10;;;;;;;0.50;0.50;;;;;;;;;;5073258;28;20202;-86
2023/05/26 10:02:37;;;;;;;0.43;0.43;;;;;;;;;;5060572;28;20194;-86
2023/05/26 10:05:03;;;;;;;0.40;0.40;;;;;;;;;;5054238;28;20175;-85
2023/05/26 10:07:30;;;;;;;0.60;0.60;;;;;;;;;;5054466;28;20167;-86
2023/05/26 10:09:58;;;;;;;0.40;0.40;;;;;;;;;;5052083;28;20190;-88
2023/05/26 10:12:29;;;;;;;0.40;0.40;;;;;;;;;;5052711;28;20211;-86
2023/05/26 10:14:55;;;;;;;0.40;0.40;;;;;;;;;;5053400;28;20278;-86
2023/05/26 10:17:22;;;;;;;0.30;0.30;;;;;;;;;;5053278;28;20312;-88
2023/05/26 10:19:49;;;;;;;0.30;0.30;;;;;;;;;;5053286;28;20268;-89
2023/05/26 10:22:19;;;;;;;0.40;0.40;;;;;;;;;;5073332;28;20232;-87
2023/05/26 10:24:47;;;;;;;0.50;0.50;;;;;;;;;;5073777;28;20167;-88
2023/05/26 10:27:16;;;;;;;0.40;0.40;;;;;;;;;;5054379;28;20183;-90
2023/05/26 10:29:46;;;;;;;0.30;0.30;;;;;;;;;;5053012;28;20202;-89
2023/05/26 10:32:31;;;;;;;0.40;0.40;;;;;;;;;;5053901;28;20215;-88
2023/05/26 10:34:58;;;;;;;0.40;0.40;;;;;;;;;;5053046;28;20230;-89
2023/05/26 10:37:26;;;;;;;0.40;0.40;;;;;;;;;;5068352;28;20683;-88
2023/05/26 10:39:52;;;;;;;0.40;0.40;;;;;;;;;;5072645;28;20216;-89
2023/05/26 10:42:21;;;;;;;0.33;0.33;;;;;;;;;;5073545;28;20171;-88
2023/05/26 10:44:50;;;;;;;0.30;0.30;;;;;;;;;;5067451;28;20186;-88
2023/05/26 10:47:19;;;;;;;0.40;0.40;;;;;;;;;;5072760;28;20182;-88
2023/05/26 10:49:52;;;;;;;0.47;0.47;;;;;;;;;;5069384;28;20229;-87
2023/05/26 10:52:19;;;;;;;0.23;0.23;;;;;;;;;;5051065;28;20217;-88
2023/05/26 10:54:47;;;;;;;0.50;0.50;;;;;;;;;;5059198;28;20183;-89
2023/05/26 10:57:27;;;;;;;0.30;0.30;;;;;;;;;;5067138;28;20181;-87
2023/05/26 10:59:53;;;;;;;0.30;0.30;;;;;;;;;;5081986;28;20587;-87
2023/05/26 11:02:21;;;;;;;0.30;0.30;;;;;;;;;;5064308;28;20174;-87
2023/05/26 11:04:49;;;;;;;0.40;0.40;;;;;;;;;;5066592;28;20614;-88
2023/05/26 11:07:26;;;;;;;0.37;0.37;;;;;;;;;;5072803;28;20176;-88
2023/05/26 11:10:08;;;;;;;0.50;0.50;;;;;;;;;;5066079;28;20196;-88
2023/05/26 11:12:48;;;;;;;0.40;0.40;;;;;;;;;;5071010;28;20244;-87
2023/05/26 11:15:26;;;;;;;0.50;0.50;;;;;;;;;;5056567;28;20179;-87
2023/05/26 11:18:01;;;;;;;0.40;0.40;;;;;;;;;;5056230;28;20201;-88
2023/05/26 11:20:27;;;;;;;0.43;0.43;;;;;;;;;;5052806;28;20194;-89
2023/05/26 11:22:53;;;;;;;0.30;0.30;;;;;;;;;;5061146;28;20171;-88
2023/05/26 11:25:20;;;;;;;0.40;0.40;;;;;;;;;;5075113;28;20179;-87
2023/05/26 11:27:47;;;;;;;0.40;0.40;;;;;;;;;;5077069;28;20230;-87
2023/05/26 11:30:13;;;;;;;0.40;0.40;;;;;;;;;;5079299;28;20198;-86
2023/05/26 11:32:45;;;;;;;0.40;0.40;;;;;;;;;;5074709;28;20317;-89
2023/05/26 11:35:28;;;;;;;0.50;0.50;;;;;;;;;;5080594;28;20209;-88
2023/05/26 11:37:55;;;;;;;0.40;0.40;;;;;;;;;;5076433;28;20626;-89
2023/05/26 11:40:21;;;;;;;0.60;0.60;;;;;;;;;;5075845;28;20213;-87
2023/05/26 11:42:52;;;;;;;0.40;0.40;;;;;;;;;;5075988;28;20174;-87
2023/05/26 11:45:18;;;;;;;0.50;0.50;;;;;;;;;;5076954;28;20179;-86
2023/05/26 11:47:44;;;;;;;0.50;0.50;;;;;;;;;;5058549;28;20179;-87
2023/05/26 11:50:11;;;;;;;0.50;0.50;;;;;;;;;;5058258;28;20195;-86
2023/05/26 11:52:47;;;;;;;0.40;0.40;;;;;;;;;;5057961;28;20210;-90
2023/05/26 11:55:13;;;;;;;0.40;0.40;;;;;;;;;;5058819;28;20190;-87
2023/05/26 11:57:40;;;;;;;0.50;0.50;;;;;;;;;;5057474;28;20178;-88
2023/05/26 12:00:17;;;;;;;0.47;0.47;;;;;;;;;;5036872;28;20203;-87
2023/05/26 12:02:44;;;;;;;0.30;0.30;;;;;;;;;;5050298;28;20286;-88
2023/05/26 12:05:22;;;;;;;0.40;0.40;;;;;;;;;;5055940;28;20164;-86
2023/05/26 12:08:09;;;;;;;0.50;0.50;;;;;;;;;;5041074;28;20218;-86
2023/05/26 12:10:38;;;;;;;0.50;0.50;;;;;;;;;;5036884;28;20215;-87
2023/05/26 12:13:04;;;;;;;0.47;0.47;;;;;;;;;;5037136;28;20246;-86
2023/05/26 12:15:30;;;;;;;0.43;0.43;;;;;;;;;;5037459;28;20627;-90
2023/05/26 12:17:58;;;;;;;0.47;0.47;;;;;;;;;;5037746;28;20188;-88
2023/05/26 12:20:24;;;;;;;0.60;0.60;;;;;;;;;;5057307;28;20199;-89
2023/05/26 12:22:51;;;;;;;0.40;0.40;;;;;;;;;;5063878;28;20178;-89
2023/05/26 12:25:24;;;;;;;0.50;0.50;;;;;;;;;;5058711;28;20183;-87
2023/05/26 12:27:50;;;;;;;0.43;0.43;;;;;;;;;;5058003;28;20183;-87
2023/05/26 12:30:17;;;;;;;0.60;0.60;;;;;;;;;;5055430;28;20195;-88
2023/05/26 12:32:43;;;;;;;0.60;0.60;;;;;;;;;;5057225;28;20222;-90
2023/05/26 12:35:10;;;;;;;0.50;0.50;;;;;;;;;;5059801;28;20228;-87
2023/05/26 12:37:36;;;;;;;0.40;0.40;;;;;;;;;;5057825;28;20187;-90
2023/05/26 12:40:02;;;;;;;0.50;0.50;;;;;;;;;;5058389;28;20197;-88
2023/05/26 12:42:28;;;;;;;0.50;0.50;;;;;;;;;;5056884;28;20175;-87
2023/05/26 12:44:54;;;;;;;0.60;0.60;;;;;;;;;;5056041;28;20570;-87
2023/05/26 12:47:20;;;;;;;0.53;0.53;;;;;;;;;;5056103;28;20194;-87
2023/05/26 12:49:46;;;;;;;0.40;0.40;;;;;;;;;;5056647;28;20698;-87
2023/05/26 12:52:12;;;;;;;0.40;0.40;;;;;;;;;;5057311;28;20580;-87
2023/05/26 12:54:38;;;;;;;0.50;0.50;;;;;;;;;;5057444;28;20178;-87
2023/05/26 12:57:04;;;;;;;0.40;0.40;;;;;;;;;;5057739;28;20183;-86
2023/05/26 12:59:31;;;;;;;0.40;0.40;;;;;;;;;;5058847;28;20202;-87
2023/05/26 13:01:57;;;;;;;0.50;0.50;;;;;;;;;;5061281;28;20270;-87
2023/05/26 13:04:23;;;;;;;0.40;0.40;;;;;;;;;;5070872;28;20159;-91
2023/05/26 13:06:53;;;;;;;0.37;0.37;;;;;;;;;;5072321;28;20203;-86
2023/05/26 13:09:19;;;;;;;0.40;0.40;;;;;;;;;;5075800;28;20190;-89
2023/05/26 13:11:45;;;;;;;0.50;0.50;;;;;;;;;;5076505;28;20552;-89
2023/05/26 13:14:11;;;;;;;0.47;0.47;;;;;;;;;;5075307;28;20174;-90
2023/05/26 13:16:38;;;;;;;0.50;0.50;;;;;;;;;;5056026;28;20297;-89
2023/05/26 13:19:04;;;;;;;0.50;0.50;;;;;;;;;;5054487;28;20187;-88
2023/05/26 13:21:31;;;;;;;0.40;0.40;;;;;;;;;;5055208;28;20196;-88
2023/05/26 13:23:57;;;;;;;0.40;0.40;;;;;;;;;;5055484;28;20178;-87
2023/05/26 13:26:23;;;;;;;0.40;0.40;;;;;;;;;;5056676;28;20557;-89
2023/05/26 13:28:52;;;;;;;0.50;0.50;;;;;;;;;;5075694;28;20171;-87
2023/05/26 13:31:19;;;;;;;0.60;0.60;;;;;;;;;;5073175;28;20690;-86
2023/05/26 13:33:45;;;;;;;0.50;0.50;;;;;;;;;;5055378;28;20183;-86
2023/05/26 13:36:12;;;;;;;0.40;0.40;;;;;;;;;;5072978;28;20163;-88
2023/05/26 13:38:38;;;;;;;0.50;0.50;;;;;;;;;;5077478;28;20174;-90
2023/05/26 13:41:04;;;;;;;0.60;0.60;;;;;;;;;;5077678;28;20182;-90
2023/05/26 13:43:30;;;;;;;0.60;0.60;;;;;;;;;;5065011;28;20261;-86
2023/05/26 13:45:56;;;;;;;0.40;0.40;;;;;;;;;;5056649;28;20262;-88
2023/05/26 13:48:23;;;;;;;0.50;0.50;;;;;;;;;;5057558;28;20654;-87
2023/05/26 13:50:50;;;;;;;0.30;0.30;;;;;;;;;;5057878;28;20662;-87
2023/05/26 13:53:16;;;;;;;0.40;0.40;;;;;;;;;;5055168;28;20645;-88
2023/05/26 13:55:42;;;;;;;0.40;0.40;;;;;;;;;;5057993;28;20630;-89
2023/05/26 13:58:08;;;;;;;0.40;0.40;;;;;;;;;;5058121;28;20171;-87
2023/05/26 14:00:34;;;;;;;0.43;0.43;;;;;;;;;;5055996;28;20210;-88
2023/05/26 14:03:00;;;;;;;0.50;0.50;;;;;;;;;;5068084;28;20175;-91
2023/05/26 14:05:26;;;;;;;0.60;0.60;;;;;;;;;;5075243;28;20210;-92
2023/05/26 14:07:52;;;;;;;0.60;0.60;;;;;;;;;;5060029;28;20217;-87
2023/05/26 14:10:18;;;;;;;0.63;0.63;;;;;;;;;;5055391;28;20213;-87
2023/05/26 14:12:45;;;;;;;0.40;0.40;;;;;;;;;;5054377;28;20222;-86
2023/05/26 14:15:11;;;;;;;0.40;0.40;;;;;;;;;;5053962;28;20599;-89
2023/05/26 14:17:37;;;;;;;0.50;0.50;;;;;;;;;;5053466;28;20269;-87
2023/05/26 14:20:04;;;;;;;0.30;0.30;;;;;;;;;;5053495;28;20259;-86
2023/05/26 14:22:30;;;;;;;0.40;0.40;;;;;;;;;;5054020;28;20209;-86
2023/05/26 14:24:56;;;;;;;0.43;0.43;;;;;;;;;;5053050;28;20198;-87
2023/05/26 14:27:22;;;;;;;0.40;0.40;;;;;;;;;;5053206;28;20646;-88
2023/05/26 14:29:48;;;;;;;0.50;0.50;;;;;;;;;;5053381;28;20577;-87
2023/05/26 14:32:14;;;;;;;0.50;0.50;;;;;;;;;;5053092;28;20211;-88
2023/05/26 14:34:40;;;;;;;0.57;0.57;;;;;;;;;;5053147;28;20198;-88
2023/05/26 14:37:06;;;;;;;0.50;0.50;;;;;;;;;;5053196;28;20179;-88
2023/05/26 14:39:32;;;;;;;0.50;0.50;;;;;;;;;;5052358;28;20195;-87
2023/05/26 14:41:58;;;;;;;0.30;0.30;;;;;;;;;;5052917;28;20179;-87